Annis, Idaho
Current Conditions -  °F | °C
As of 12:53 PM on Thursday 18 Dec 2014 (Local Time) from KRXE Reporting Station
Overcast Overcast  
Wind Chill: 33°   Ceiling: 4400
Heat Index: 33°   Visibility: 10mi
Dew Point: 27°   Wind: 0mph
Humidity: 78%   Direction: NA
Pressure: 30.11"   Gusts: NA
Location:  43.6749°N, 111.89°W
Report Text: KRXE 181953Z AUTO 00000KT 10SM OVC044 01/M03 A3011 RMK AO2 SLP225 T00061028
Loading
Personal Weather Stations






























Interactive Weather Map New forecast layout! Learn more

10-Day Weather Forecast

Advertisements
Track Severe Weather on mobile